Map

Track Data

SID SEASON NUMBER BASIN SUBBASIN NAME ISO_TIME NATURE LAT LON WMO_WIND WMO_PRES WMO_AGENCY TRACK_TYPE DIST2LAND LANDFALL IFLAG USA_AGENCY USA_ATCF_ID USA_LAT USA_LON USA_RECORD USA_STATUS USA_WIND USA_PRES USA_SSHS USA_R34_NE USA_R34_SE USA_R34_SW USA_R34_NW USA_R50_NE USA_R50_SE USA_R50_SW USA_R50_NW USA_R64_NE USA_R64_SE USA_R64_SW USA_R64_NW USA_POCI USA_ROCI USA_RMW USA_EYE TOKYO_LAT TOKYO_LON TOKYO_GRADE TOKYO_WIND TOKYO_PRES TOKYO_R50_DIR TOKYO_R50_LONG TOKYO_R50_SHORT TOKYO_R30_DIR TOKYO_R30_LONG TOKYO_R30_SHORT TOKYO_LAND CMA_LAT CMA_LON CMA_CAT CMA_WIND CMA_PRES HKO_LAT HKO_LON HKO_CAT HKO_WIND HKO_PRES NEWDELHI_LAT NEWDELHI_LON NEWDELHI_GRADE NEWDELHI_WIND NEWDELHI_PRES NEWDELHI_CI NEWDELHI_DP NEWDELHI_POCI REUNION_LAT REUNION_LON REUNION_TYPE REUNION_WIND REUNION_PRES REUNION_TNUM REUNION_CI REUNION_RMW REUNION_R34_NE REUNION_R34_SE REUNION_R34_SW REUNION_R34_NW REUNION_R50_NE REUNION_R50_SE REUNION_R50_SW REUNION_R50_NW REUNION_R64_NE REUNION_R64_SE REUNION_R64_SW REUNION_R64_NW BOM_LAT BOM_LON BOM_TYPE BOM_WIND BOM_PRES BOM_TNUM BOM_CI BOM_RMW BOM_R34_NE BOM_R34_SE BOM_R34_SW BOM_R34_NW BOM_R50_NE BOM_R50_SE BOM_R50_SW BOM_R50_NW BOM_R64_NE BOM_R64_SE BOM_R64_SW BOM_R64_NW BOM_ROCI BOM_POCI BOM_EYE BOM_POS_METHOD BOM_PRES_METHOD NADI_LAT NADI_LON NADI_CAT NADI_WIND NADI_PRES WELLINGTON_LAT WELLINGTON_LON WELLINGTON_WIND WELLINGTON_PRES DS824_LAT DS824_LON DS824_STAGE DS824_WIND DS824_PRES TD9636_LAT TD9636_LON TD9636_STAGE TD9636_WIND TD9636_PRES TD9635_LAT TD9635_LON TD9635_WIND TD9635_PRES TD9635_ROCI NEUMANN_LAT NEUMANN_LON NEUMANN_CLASS NEUMANN_WIND NEUMANN_PRES MLC_LAT MLC_LON MLC_CLASS MLC_WIND MLC_PRES USA_GUST BOM_GUST BOM_GUST_PER REUNION_GUST REUNION_GUST_PER USA_SEAHGT USA_SEARAD_NE USA_SEARAD_SE USA_SEARAD_SW USA_SEARAD_NW STORM_SPEED STORM_DIR
1993041S16052 1993 11 SI MM FINELLA 1993-02-10 00:00:00 TS -16.0000 52.0000 main 174 154 O___________O_ jtwc_sh SH191993 -16.0000 52.0000 15 -1 -16.0000 52.0000 TC 15 7 230
1993041S16052 1993 11 SI MM FINELLA 1993-02-10 03:00:00 TS -16.2376 51.7026 main 154 139 P___________P_ SH191993 -16.2376 51.7026 15 -1 -16.2376 51.7026 TC 15 8 229
1993041S16052 1993 11 SI MM FINELLA 1993-02-10 06:00:00 TS -16.5000 51.4000 main 139 123 O___________O_ jtwc_sh SH191993 -16.5000 51.4000 15 -1 -16.5000 51.4000 TC 15 8 226
1993041S16052 1993 11 SI MM FINELLA 1993-02-10 09:00:00 TS -16.8000 51.0925 main 131 111 P___________P_ SH191993 -16.8000 51.0925 17 -1 -16.8000 51.0925 TC 17 8 224
1993041S16052 1993 11 SI MM FINELLA 1993-02-10 12:00:00 TS -17.1000 50.8000 main 111 93 O___________O_ jtwc_sh SH191993 -17.1000 50.8000 20 -1 -17.1000 50.8000 TC 20 8 225
1993041S16052 1993 11 SI MM FINELLA 1993-02-10 15:00:00 TS -17.3500 50.5199 main 100 85 P___________P_ SH191993 -17.3500 50.5199 20 -1 -17.3500 50.5199 TC 20 7 224
1993041S16052 1993 11 SI MM FINELLA 1993-02-10 18:00:00 TS -17.6000 50.3000 main 85 74 O___________O_ jtwc_sh SH191993 -17.6000 50.3000 20 -1 -17.6000 50.3000 TC 20 6 211
1993041S16052 1993 11 SI MM FINELLA 1993-02-10 21:00:00 TS -17.9000 50.1699 main 77 71 P___________P_ SH191993 -17.9000 50.1699 20 -1 -17.9000 50.1699 TC 20 6 198
1993041S16052 1993 11 SI MM FINELLA 1993-02-11 00:00:00 TS -18.2000 50.1000 main 73 67 O___________O_ jtwc_sh SH191993 -18.2000 50.1000 20 -1 -18.2000 50.1000 TC 20 6 193
1993041S16052 1993 11 SI MM FINELLA 1993-02-11 03:00:00 TS -18.4575 50.0350 main 71 71 P___________P_ SH191993 -18.4575 50.0350 20 -1 -18.4575 50.0350 TC 20 5 191
1993041S16052 1993 11 SI MM FINELLA 1993-02-11 06:00:00 TS -18.7000 50.0000 main 81 81 O___________O_ jtwc_sh SH191993 -18.7000 50.0000 20 -1 -18.7000 50.0000 TC 20 5 184
1993041S16052 1993 11 SI MM FINELLA 1993-02-11 09:00:00 TS -18.9425 49.9850 main 87 87 P___________P_ SH191993 -18.9425 49.9850 20 -1 -18.9425 49.9850 TC 20 5 178
1993041S16052 1993 11 SI MM FINELLA 1993-02-11 12:00:00 TS -19.2000 50.0000 main 97 97 O___________O_ jtwc_sh SH191993 -19.2000 50.0000 20 -1 -19.2000 50.0000 TC 20 6 175
1993041S16052 1993 11 SI MM FINELLA 1993-02-11 15:00:00 TS -19.5000 50.0350 main 109 109 P___________P_ SH191993 -19.5000 50.0350 20 -1 -19.5000 50.0350 TC 20 6 171
1993041S16052 1993 11 SI MM FINELLA 1993-02-11 18:00:00 TS -19.8000 50.1000 main 133 133 O___________O_ jtwc_sh SH191993 -19.8000 50.1000 20 -1 -19.8000 50.1000 TC 20 6 165
1993041S16052 1993 11 SI MM FINELLA 1993-02-11 21:00:00 TS -20.0650 50.1925 main 146 146 P___________P_ SH191993 -20.0650 50.1925 20 -1 -20.0650 50.1925 TC 20 5 159
1993041S16052 1993 11 SI MM FINELLA 1993-02-12 00:00:00 TS -20.3000 50.3000 main 160 160 O___________O_ jtwc_sh SH191993 -20.3000 50.3000 20 -1 -20.3000 50.3000 TC 20 5 158
1993041S16052 1993 11 SI MM FINELLA 1993-02-12 03:00:00 TS -20.5150 50.3926 main 176 176 P___________P_ SH191993 -20.5150 50.3926 22 -1 -20.5150 50.3926 TC 22 3 158
1993041S16052 1993 11 SI MM FINELLA 1993-02-12 06:00:00 TS -20.6111 50.4333 20 1002 reunion main 179 179 O____O______O_ jtwc_sh SH191993 -20.7000 50.5000 25 -1 -19.9000 49.9000 1 20 1002 1.50000 1.50000 -20.7000 50.5000 TC 25 3 167
1993041S16052 1993 11 SI MM FINELLA 1993-02-12 09:00:00 TS -20.7930 50.4647 main 198 198 P____P______P_ SH191993 -20.8575 50.6575 25 -1 -20.5349 49.6936 1 20 1002 -20.8575 50.6575 TC 25 4 172
1993041S16052 1993 11 SI MM FINELLA 1993-02-12 12:00:00 TS -21.0273 50.5000 20 1002 reunion main 207 207 O____O______O_ jtwc_sh SH191993 -21.0000 50.8000 25 -1 -21.1000 49.7000 1 20 1002 1.50000 1.50000 -21.0000 50.8000 TC 25 5 167
1993041S16052 1993 11 SI MM FINELLA 1993-02-12 15:00:00 TS -21.2668 50.5881 main 230 230 P____P______P_ SH191993 -21.1275 50.8651 27 -1 -21.5454 50.0342 1 21 1001 -21.1275 50.8651 TC 27 5 155
1993041S16052 1993 11 SI MM FINELLA 1993-02-12 18:00:00 TS -21.5000 50.7333 23 1000 reunion main 244 244 O____O______O_ jtwc_sh SH191993 -21.3000 50.9000 30 -1 -21.9000 50.4000 2 23 1000 2.00000 2.00000 -21.3000 50.9000 TC 30 5 163
1993041S16052 1993 11 SI MM FINELLA 1993-02-12 21:00:00 TS -21.7749 50.7545 main 262 262 P____P______P_ SH191993 -21.5625 50.9500 30 -1 -22.1996 50.3636 2 25 999 -21.5625 50.9500 TC 30 6 175
1993041S16052 1993 11 SI MM FINELLA 1993-02-13 00:00:00 TS -22.1000 50.8000 27 998 reunion main 269 269 O____O______O_ jtwc_sh SH191993 -21.9000 51.0000 30 -1 -22.5000 50.4000 2 27 998 2.50000 2.50000 -21.9000 51.0000 TC 30 8 163
1993041S16052 1993 11 SI MM FINELLA 1993-02-13 03:00:00 TS -22.4952 50.9956 main 298 298 P____P______P_ SH191993 -22.2849 51.0203 35 0 -22.9158 50.9464 2 27 997 -22.2849 51.0203 TC 35 9 152
1993041S16052 1993 11 SI MM FINELLA 1993-02-13 06:00:00 TS -22.9000 51.2667 28 996 reunion main 341 341 O____O______O_ jtwc_sh SH191993 -22.7000 51.1000 40 0 -23.3000 51.6000 2 28 996 2.50000 2.50000 -22.7000 51.1000 TC 40 9 146
1993041S16052 1993 11 SI MM FINELLA 1993-02-13 09:00:00 TS -23.2231 51.5230 main 373 373 P____P______P_ SH191993 -23.0848 51.2829 45 0 -23.4997 52.0032 2 29 995 -23.0848 51.2829 TC 45 8 142
1993041S16052 1993 11 SI MM FINELLA 1993-02-13 12:00:00 TS -23.5667 51.8333 30 995 reunion main 415 415 O____O______O_ jtwc_sh SH191993 -23.5000 51.6000 50 0 -23.7000 52.3000 2 30 995 2.50000 2.50000 -23.5000 51.6000 TC 50 10 142
1993041S16052 1993 11 SI MM FINELLA 1993-02-13 15:00:00 TS -24.0182 52.2101 main 438 438 P____P______P_ SH191993 -24.0001 52.0548 55 0 -24.0546 52.5207 2 32 993 -24.0001 52.0548 TC 52 12 141
1993041S16052 1993 11 SI MM FINELLA 1993-02-13 18:00:00 TS -24.5000 52.6667 35 992 reunion main 445 445 O____O______O_ jtwc_sh SH191993 -24.5000 52.6000 60 0 -24.5000 52.8000 3 35 992 3.00000 3.00000 -24.5000 52.6000 TC 55 13 136
1993041S16052 1993 11 SI MM FINELLA 1993-02-13 21:00:00 TS -24.9384 53.2019 main 456 456 P____P______P_ SH191993 -24.9074 53.1431 65 1 -25.0004 53.3194 3 37 990 -24.9074 53.1431 TC 55 13 131
1993041S16052 1993 11 SI MM FINELLA 1993-02-14 00:00:00 TS -25.3667 53.7667 39 988 reunion main 483 479 O____O______O_ jtwc_sh SH191993 -25.3000 53.7000 70 1 -25.5000 53.9000 3 39 988 3.00000 3.00000 -25.3000 53.7000 TC 55 13 131
1993041S16052 1993 11 SI MM FINELLA 1993-02-14 03:00:00 TS -25.7923 54.2913 main 509 509 P____P______P_ SH191993 -25.7423 54.2503 72 1 -25.8923 54.3733 3 41 986 -25.7423 54.2503 TC 57 13 133
1993041S16052 1993 11 SI MM FINELLA 1993-02-14 06:00:00 TS -26.2333 54.8000 44 984 reunion main 542 542 O____O______O_ jtwc_sh SH191993 -26.2000 54.8000 75 1 -26.3000 54.8000 3 44 984 3.50000 3.50000 -26.2000 54.8000 TC 60 13 135
1993041S16052 1993 11 SI MM FINELLA 1993-02-14 09:00:00 TS -26.7165 55.3077 main 593 593 P____P______P_ SH191993 -26.6574 55.3577 75 1 -26.8348 55.2077 3 44 984 -26.6574 55.3577 TC 60 13 137
1993041S16052 1993 11 SI MM FINELLA 1993-02-14 12:00:00 TS -27.2000 55.8000 44 984 reunion main 648 648 O____O______O_ jtwc_sh SH191993 -27.1000 55.9000 75 1 -27.4000 55.6000 3 44 984 3.00000 3.50000 -27.1000 55.9000 TC 60 13 135
1993041S16052 1993 11 SI MM FINELLA 1993-02-14 15:00:00 TS -27.6285 56.3217 main 696 696 P____P______P_ SH191993 -27.4926 56.4601 75 1 -27.9002 56.0448 3 40 987 -27.4926 56.4601 TC 57 12 136
1993041S16052 1993 11 SI MM FINELLA 1993-02-14 18:00:00 TS -28.0667 56.7333 37 990 reunion main 756 756 O____O______O_ jtwc_sh SH191993 -27.9000 56.9000 75 1 -28.4000 56.4000 3 37 990 2.50000 3.00000 -27.9000 56.9000 TC 55 11 152
1993041S16052 1993 11 SI MM FINELLA 1993-02-14 21:00:00 TS -28.5830 56.9075 main 815 815 P____P______P_ SH191993 -28.3922 57.1032 72 1 -28.9647 56.5161 3 37 991 -28.3922 57.1032 TC 55 11 167
1993041S16052 1993 11 SI MM FINELLA 1993-02-15 00:00:00 TS -29.1000 57.0000 37 992 reunion main 871 871 O____O______O_ jtwc_sh SH191993 -28.9000 57.2000 70 1 -29.5000 56.6000 3 37 992 2.50000 3.00000 -28.9000 57.2000 TC 55 10 167
1993041S16052 1993 11 SI MM FINELLA 1993-02-15 03:00:00 TS -29.5632 57.1677 main 929 929 P____P______P_ SH191993 -29.3724 57.3353 67 1 -29.9447 56.8326 3 32 994 -29.3724 57.3353 TC 52 9 156
1993041S16052 1993 11 SI MM FINELLA 1993-02-15 06:00:00 TS -29.9364 57.4182 28 996 reunion main 966 966 O____O______O_ jtwc_sh SH191993 -29.8000 57.5000 65 1 -30.3000 57.2000 2 28 996 2.50000 2.50000 -29.8000 57.5000 TC 50 8 145
1993041S16052 1993 11 SI MM FINELLA 1993-02-15 09:00:00 TS -30.2526 57.7180 main 1016 1016 P____P______P_ SH191993 -30.1724 57.7202 62 0 -30.5732 57.7095 2 -30.1724 57.7202 TC 47 8 138
1993041S16052 1993 11 SI MM FINELLA 1993-02-15 12:00:00 MX -30.5333 58.0333 reunion main 1044 1044 O____O______O_ jtwc_sh SH191993 -30.5000 58.0000 60 0 -30.8000 58.3000 5 9.90000 -30.5000 58.0000 TC 45 7 135
1993041S16052 1993 11 SI MM FINELLA 1993-02-15 15:00:00 TS -30.7700 58.3282 main 1083 1083 P___________P_ SH191993 -30.7700 58.3282 57 0 5 -30.7700 58.3282 TC 42 8 135
1993041S16052 1993 11 SI MM FINELLA 1993-02-15 18:00:00 TS -31.1000 58.7000 main 1126 1126 O___________O_ jtwc_sh SH191993 -31.1000 58.7000 55 0 -31.1000 58.7000 TC 40 11 142
1993041S16052 1993 11 SI MM FINELLA 1993-02-15 21:00:00 TS -31.6125 59.0924 main 1190 1190 P___________P_ SH191993 -31.6125 59.0924 50 0 -31.6125 59.0924 TC 40 13 148
1993041S16052 1993 11 SI MM FINELLA 1993-02-16 00:00:00 TS -32.2000 59.5000 main 1266 1266 O___________O_ jtwc_sh SH191993 -32.2000 59.5000 45 0 -32.2000 59.5000 TC 40 13 149
1993041S16052 1993 11 SI MM FINELLA 1993-02-16 03:00:00 TS -32.7627 59.9018 main 1341 1341 P___________P_ SH191993 -32.7627 59.9018 42 0 -32.7627 59.9018 TC 37 13 149
1993041S16052 1993 11 SI MM FINELLA 1993-02-16 06:00:00 TS -33.3000 60.3000 main 1406 O___________O_ jtwc_sh SH191993 -33.3000 60.3000 40 0 -33.3000 60.3000 TC 35 13 148

About IBTrACS Database

This database is a web-friendly format of International Best Track Archive for Climate Stewardship (IBTrACS), a global best track data archive curated by NOAA dating back to 1842.

Updated: 2021-10-21